Time;durP1;ratioP1;P1;durP2;ratioP2;P2;SDS_P1;SDS_P2;PMS_P1;PMS_P2;Temp;Humidity;BMP_temperature;BMP_pressure;BME280_temperature;BME280_humidity;BME280_pressure;Samples;Min_cycle;Max_cycle;Signal;HPM_P1;HPM_P2
2023/04/20 00:01:46;;;;;;;3.63;2.20;;;;;;;;;;5073457;28;20203;-49
2023/04/20 00:04:14;;;;;;;4.60;2.67;;;;;;;;;;5073246;28;20679;-49
2023/04/20 00:06:42;;;;;;;3.88;1.92;;;;;;;;;;5073098;28;20663;-50
2023/04/20 00:09:14;;;;;;;3.45;1.95;;;;;;;;;;5073444;28;20211;-49
2023/04/20 00:11:41;;;;;;;3.75;1.98;;;;;;;;;;5073223;28;20210;-49
2023/04/20 00:14:08;;;;;;;4.25;2.05;;;;;;;;;;5073092;28;20207;-49
2023/04/20 00:16:35;;;;;;;7.75;2.45;;;;;;;;;;5073223;28;20214;-49
2023/04/20 00:19:02;;;;;;;7.40;2.00;;;;;;;;;;5072641;28;20227;-50
2023/04/20 00:21:29;;;;;;;6.28;2.22;;;;;;;;;;5073055;28;20207;-49
2023/04/20 00:23:56;;;;;;;3.47;1.70;;;;;;;;;;5073286;28;20222;-50
2023/04/20 00:26:23;;;;;;;3.28;1.77;;;;;;;;;;5073341;28;20207;-49
2023/04/20 00:28:53;;;;;;;3.22;1.85;;;;;;;;;;5073223;28;20561;-50
2023/04/20 00:31:20;;;;;;;4.00;2.30;;;;;;;;;;5071803;28;20735;-49
2023/04/20 00:33:47;;;;;;;3.40;1.83;;;;;;;;;;5071994;28;20320;-49
2023/04/20 00:36:14;;;;;;;3.45;1.70;;;;;;;;;;5071772;28;20229;-51
2023/04/20 00:38:41;;;;;;;4.63;1.95;;;;;;;;;;5072956;28;20256;-49
2023/04/20 00:41:08;;;;;;;3.25;1.92;;;;;;;;;;5072926;28;20203;-50
2023/04/20 00:43:36;;;;;;;3.72;1.90;;;;;;;;;;5072193;28;20584;-49
2023/04/20 00:46:03;;;;;;;4.57;2.17;;;;;;;;;;5071546;28;20203;-49
2023/04/20 00:48:30;;;;;;;4.55;2.15;;;;;;;;;;5071674;28;20204;-49
2023/04/20 00:50:57;;;;;;;4.05;2.20;;;;;;;;;;5072878;28;20227;-51
2023/04/20 00:53:24;;;;;;;3.47;1.83;;;;;;;;;;5071603;28;20211;-49
2023/04/20 00:55:51;;;;;;;3.72;1.90;;;;;;;;;;5035272;28;20216;-49
2023/04/20 00:58:19;;;;;;;4.25;2.10;;;;;;;;;;5052681;28;20685;-50
2023/04/20 01:00:46;;;;;;;3.42;1.90;;;;;;;;;;5052751;28;20196;-51
2023/04/20 01:03:13;;;;;;;2.45;1.90;;;;;;;;;;5052672;28;20290;-50
2023/04/20 01:05:40;;;;;;;5.82;2.20;;;;;;;;;;5035383;28;20204;-49
2023/04/20 01:08:07;;;;;;;4.15;1.80;;;;;;;;;;5052557;28;20669;-49
2023/04/20 01:10:35;;;;;;;3.42;1.85;;;;;;;;;;5055208;28;20204;-49
2023/04/20 01:13:06;;;;;;;3.63;1.95;;;;;;;;;;5038653;28;20206;-49
2023/04/20 01:15:34;;;;;;;3.88;1.88;;;;;;;;;;5038375;28;20203;-49
2023/04/20 01:18:01;;;;;;;2.95;1.60;;;;;;;;;;5056101;28;20200;-50
2023/04/20 01:20:29;;;;;;;2.53;1.95;;;;;;;;;;5038486;28;20228;-49
2023/04/20 01:22:56;;;;;;;3.78;1.90;;;;;;;;;;5038234;28;20285;-49
2023/04/20 01:25:23;;;;;;;2.22;1.60;;;;;;;;;;5055958;28;20207;-49
2023/04/20 01:27:52;;;;;;;3.17;1.67;;;;;;;;;;5055872;28;20215;-49
2023/04/20 01:30:19;;;;;;;4.03;2.05;;;;;;;;;;5055816;28;20231;-49
2023/04/20 01:32:46;;;;;;;3.78;1.80;;;;;;;;;;5056088;28;20212;-49
2023/04/20 01:35:15;;;;;;;2.50;1.50;;;;;;;;;;5038277;28;20265;-50
2023/04/20 01:37:44;;;;;;;3.28;2.08;;;;;;;;;;5055861;28;20200;-50
2023/04/20 01:40:12;;;;;;;4.93;2.08;;;;;;;;;;5055754;28;20204;-49
2023/04/20 01:42:40;;;;;;;2.58;1.67;;;;;;;;;;5055622;28;20235;-49
2023/04/20 01:45:07;;;;;;;4.05;1.90;;;;;;;;;;5055523;28;20204;-51
2023/04/20 01:47:35;;;;;;;2.60;1.70;;;;;;;;;;5055682;28;20208;-49
2023/04/20 01:50:02;;;;;;;3.22;1.80;;;;;;;;;;5037857;28;20207;-50
2023/04/20 01:52:29;;;;;;;2.83;1.75;;;;;;;;;;5055600;28;20208;-49
2023/04/20 01:54:56;;;;;;;2.45;1.80;;;;;;;;;;5037664;28;20208;-51
2023/04/20 01:57:24;;;;;;;2.72;1.92;;;;;;;;;;5055598;28;20200;-49
2023/04/20 01:59:50;;;;;;;2.55;1.58;;;;;;;;;;5055619;28;20200;-49
2023/04/20 02:02:18;;;;;;;2.58;1.60;;;;;;;;;;5037487;28;20688;-49
2023/04/20 02:04:45;;;;;;;4.20;1.42;;;;;;;;;;5037732;28;20236;-51
2023/04/20 02:07:12;;;;;;;6.57;1.83;;;;;;;;;;5055216;28;20215;-49
2023/04/20 02:09:39;;;;;;;1.88;1.48;;;;;;;;;;5055158;28;20234;-49
2023/04/20 02:12:06;;;;;;;2.65;1.70;;;;;;;;;;5055089;28;20212;-49
2023/04/20 02:14:33;;;;;;;2.90;1.58;;;;;;;;;;5037176;28;20687;-48
2023/04/20 02:17:00;;;;;;;2.50;1.48;;;;;;;;;;5037564;28;20204;-49
2023/04/20 02:19:27;;;;;;;2.42;1.50;;;;;;;;;;5020902;28;20242;-49
2023/04/20 02:21:54;;;;;;;2.63;1.60;;;;;;;;;;5036039;28;20726;-49
2023/04/20 02:24:21;;;;;;;2.15;1.60;;;;;;;;;;5037052;28;21370;-49
2023/04/20 02:26:49;;;;;;;2.90;1.70;;;;;;;;;;5037711;28;20558;-49
2023/04/20 02:29:15;;;;;;;3.40;1.50;;;;;;;;;;5054727;28;20212;-49
2023/04/20 02:31:43;;;;;;;2.55;1.58;;;;;;;;;;5037036;28;20208;-50
2023/04/20 02:34:15;;;;;;;2.60;1.60;;;;;;;;;;5037010;28;20204;-51
2023/04/20 02:36:42;;;;;;;5.07;1.65;;;;;;;;;;5054792;28;20215;-49
2023/04/20 02:39:11;;;;;;;3.88;1.60;;;;;;;;;;5054585;28;20199;-49
2023/04/20 02:41:39;;;;;;;4.22;1.55;;;;;;;;;;5054497;28;20204;-50
2023/04/20 02:44:06;;;;;;;2.88;1.50;;;;;;;;;;5036864;28;20311;-49
2023/04/20 02:46:36;;;;;;;2.97;1.67;;;;;;;;;;5054473;28;20204;-50
2023/04/20 02:49:03;;;;;;;2.22;1.40;;;;;;;;;;5036540;28;20286;-49
2023/04/20 02:51:35;;;;;;;2.30;1.50;;;;;;;;;;5036678;28;20196;-49
2023/04/20 02:54:02;;;;;;;2.65;1.50;;;;;;;;;;5036389;28;20303;-52
2023/04/20 02:56:31;;;;;;;2.38;1.75;;;;;;;;;;5036397;28;20661;-49
2023/04/20 02:59:03;;;;;;;5.95;2.20;;;;;;;;;;5036644;28;20246;-51
2023/04/20 03:01:41;;;;;;;3.78;1.55;;;;;;;;;;5053917;28;20253;-49
2023/04/20 03:04:12;;;;;;;2.95;1.85;;;;;;;;;;5036307;28;20232;-50
2023/04/20 03:06:50;;;;;;;3.65;1.90;;;;;;;;;;5036116;28;20617;-48
2023/04/20 03:09:23;;;;;;;3.90;1.90;;;;;;;;;;5035930;28;20208;-49
2023/04/20 03:12:13;;;;;;;2.47;1.38;;;;;;;;;;5035991;28;20263;-49
2023/04/20 03:15:05;;;;;;;1.77;1.20;;;;;;;;;;5032472;28;20200;-52
2023/04/20 03:17:55;;;;;;;3.25;1.70;;;;;;;;;;5053274;28;20211;-49
2023/04/20 03:20:22;;;;;;;3.10;1.60;;;;;;;;;;5036026;28;20331;-49
2023/04/20 03:22:49;;;;;;;1.73;1.20;;;;;;;;;;5053725;28;20250;-49
2023/04/20 03:25:18;;;;;;;4.82;1.70;;;;;;;;;;5035739;28;20279;-49
2023/04/20 03:27:55;;;;;;;2.58;1.40;;;;;;;;;;5056841;28;20206;-49
2023/04/20 03:30:23;;;;;;;1.90;1.33;;;;;;;;;;5042590;28;20206;-52
2023/04/20 03:33:00;;;;;;;2.00;1.38;;;;;;;;;;5045514;28;20203;-51
2023/04/20 03:35:27;;;;;;;1.88;1.48;;;;;;;;;;5050487;28;20203;-51
2023/04/20 03:37:55;;;;;;;2.05;1.55;;;;;;;;;;5065069;28;20203;-51
2023/04/20 03:40:22;;;;;;;2.65;1.65;;;;;;;;;;5063200;28;20199;-51
2023/04/20 03:42:49;;;;;;;3.13;2.03;;;;;;;;;;5070375;28;20640;-50
2023/04/20 03:45:16;;;;;;;4.05;2.30;;;;;;;;;;5063726;28;20199;-50
2023/04/20 03:47:43;;;;;;;6.22;2.85;;;;;;;;;;5063894;28;20203;-53
2023/04/20 03:50:10;;;;;;;5.75;2.97;;;;;;;;;;5074706;28;20294;-51
2023/04/20 03:52:38;;;;;;;4.18;2.42;;;;;;;;;;5062747;28;20203;-51
2023/04/20 03:55:06;;;;;;;5.47;2.53;;;;;;;;;;5064627;28;20194;-50
2023/04/20 03:57:36;;;;;;;3.47;2.10;;;;;;;;;;5061323;28;20198;-52
2023/04/20 04:00:05;;;;;;;4.65;2.00;;;;;;;;;;5065001;28;20651;-49
2023/04/20 04:02:44;;;;;;;3.55;2.03;;;;;;;;;;5070438;28;20204;-48
2023/04/20 04:05:15;;;;;;;3.45;2.03;;;;;;;;;;5038646;28;20295;-52
2023/04/20 04:07:42;;;;;;;3.72;2.13;;;;;;;;;;5042139;28;20236;-48
2023/04/20 04:10:12;;;;;;;4.40;1.73;;;;;;;;;;5051069;28;20246;-48
2023/04/20 04:12:39;;;;;;;3.00;1.70;;;;;;;;;;5073452;28;20234;-51
2023/04/20 04:15:07;;;;;;;3.50;1.83;;;;;;;;;;5074842;28;20703;-51
2023/04/20 04:17:40;;;;;;;2.15;1.38;;;;;;;;;;5064882;28;20219;-51
2023/04/20 04:20:08;;;;;;;4.30;1.70;;;;;;;;;;5043466;28;20231;-49
2023/04/20 04:22:36;;;;;;;5.72;1.80;;;;;;;;;;5036333;28;20228;-51
2023/04/20 04:25:26;;;;;;;5.18;1.70;;;;;;;;;;5034463;28;20277;-52
2023/04/20 04:27:54;;;;;;;1.98;1.05;;;;;;;;;;5034647;28;20231;-49
2023/04/20 04:30:22;;;;;;;4.10;1.75;;;;;;;;;;5034560;28;20228;-50
2023/04/20 04:32:50;;;;;;;2.22;1.17;;;;;;;;;;5034694;28;20224;-49
2023/04/20 04:35:18;;;;;;;2.63;1.40;;;;;;;;;;5034307;28;20224;-53
2023/04/20 04:37:46;;;;;;;2.25;1.35;;;;;;;;;;5034100;28;20238;-50
2023/04/20 04:40:13;;;;;;;3.20;1.50;;;;;;;;;;5058365;28;20227;-50
2023/04/20 04:42:44;;;;;;;1.65;1.40;;;;;;;;;;5059742;28;20235;-49
2023/04/20 04:45:12;;;;;;;2.50;1.58;;;;;;;;;;5064069;28;20628;-55
2023/04/20 04:47:42;;;;;;;2.40;1.80;;;;;;;;;;5062519;28;20216;-50
2023/04/20 04:50:09;;;;;;;2.17;1.30;;;;;;;;;;5066890;28;20218;-52
2023/04/20 04:52:36;;;;;;;1.83;1.40;;;;;;;;;;5084817;28;20229;-49
2023/04/20 04:55:07;;;;;;;2.05;1.40;;;;;;;;;;5065797;28;20215;-49
2023/04/20 04:57:35;;;;;;;1.67;1.40;;;;;;;;;;5083029;28;20230;-53
2023/04/20 05:00:05;;;;;;;3.13;1.55;;;;;;;;;;5075517;28;20226;-48
2023/04/20 05:02:33;;;;;;;4.43;1.52;;;;;;;;;;5074368;28;20239;-53
2023/04/20 05:05:00;;;;;;;1.83;1.50;;;;;;;;;;5083809;28;20250;-51
2023/04/20 05:07:28;;;;;;;1.98;1.30;;;;;;;;;;5091758;28;20226;-48
2023/04/20 05:09:55;;;;;;;3.60;1.45;;;;;;;;;;5079748;28;20626;-49
2023/04/20 05:12:24;;;;;;;4.78;1.40;;;;;;;;;;5065181;28;20238;-47
2023/04/20 05:14:51;;;;;;;2.35;1.70;;;;;;;;;;5056459;28;20230;-48
2023/04/20 05:17:18;;;;;;;3.22;1.90;;;;;;;;;;5055480;28;20208;-48
2023/04/20 05:19:46;;;;;;;1.65;1.55;;;;;;;;;;5054808;28;20264;-50
2023/04/20 05:22:13;;;;;;;2.55;1.42;;;;;;;;;;5056036;28;20210;-50
2023/04/20 05:24:41;;;;;;;2.60;1.35;;;;;;;;;;5055853;28;20250;-48
2023/04/20 05:27:08;;;;;;;5.25;1.70;;;;;;;;;;5056005;28;20208;-49
2023/04/20 05:29:36;;;;;;;3.65;1.65;;;;;;;;;;5081993;28;20202;-49
2023/04/20 05:32:04;;;;;;;2.63;1.50;;;;;;;;;;5089876;28;20663;-52
2023/04/20 05:34:31;;;;;;;2.70;1.60;;;;;;;;;;5095733;28;20285;-48
2023/04/20 05:36:58;;;;;;;2.22;1.40;;;;;;;;;;5095503;28;20206;-48
2023/04/20 05:39:25;;;;;;;2.83;1.58;;;;;;;;;;5096251;28;20219;-49
2023/04/20 05:41:52;;;;;;;2.65;1.70;;;;;;;;;;5085764;28;20203;-48
2023/04/20 05:44:19;;;;;;;3.15;1.92;;;;;;;;;;5074528;28;20226;-48
2023/04/20 05:46:46;;;;;;;1.98;1.48;;;;;;;;;;5057765;28;20207;-51
2023/04/20 05:49:13;;;;;;;3.40;1.50;;;;;;;;;;5075230;28;20773;-48
2023/04/20 05:51:41;;;;;;;6.10;1.50;;;;;;;;;;5075857;28;20204;-49
2023/04/20 05:54:09;;;;;;;4.15;1.63;;;;;;;;;;5075358;28;20681;-49
2023/04/20 05:56:36;;;;;;;3.55;1.50;;;;;;;;;;5075265;28;20203;-48
2023/04/20 05:59:03;;;;;;;3.95;1.83;;;;;;;;;;5057487;28;20664;-48
2023/04/20 06:01:31;;;;;;;4.72;1.80;;;;;;;;;;5058011;28;20191;-48
2023/04/20 06:03:58;;;;;;;2.03;1.60;;;;;;;;;;5075094;28;20588;-49
2023/04/20 06:06:25;;;;;;;2.03;1.42;;;;;;;;;;5075197;28;20199;-48
2023/04/20 06:08:53;;;;;;;2.90;1.83;;;;;;;;;;5075250;28;20638;-50
2023/04/20 06:11:21;;;;;;;4.38;1.65;;;;;;;;;;5075178;28;20664;-48
2023/04/20 06:13:48;;;;;;;2.15;1.20;;;;;;;;;;5075325;28;20273;-49
2023/04/20 06:16:15;;;;;;;5.72;1.42;;;;;;;;;;5075292;28;20207;-48
2023/04/20 06:18:42;;;;;;;1.73;1.20;;;;;;;;;;5075014;28;20199;-51
2023/04/20 06:21:10;;;;;;;2.25;1.35;;;;;;;;;;5074807;28;20672;-48
2023/04/20 06:23:37;;;;;;;3.92;1.50;;;;;;;;;;5075154;28;20215;-49
2023/04/20 06:26:07;;;;;;;4.28;1.90;;;;;;;;;;5074868;28;20203;-49
2023/04/20 06:28:35;;;;;;;4.18;1.98;;;;;;;;;;5074946;28;20203;-48
2023/04/20 06:31:03;;;;;;;2.10;1.60;;;;;;;;;;5074880;28;20249;-49
2023/04/20 06:33:30;;;;;;;3.25;1.20;;;;;;;;;;5074746;28;20200;-48
2023/04/20 06:35:58;;;;;;;4.68;1.63;;;;;;;;;;5074779;28;20214;-48
2023/04/20 06:38:24;;;;;;;4.55;2.08;;;;;;;;;;5074589;28;20737;-48
2023/04/20 06:40:52;;;;;;;2.72;1.48;;;;;;;;;;5074757;28;20210;-48
2023/04/20 06:43:20;;;;;;;2.65;1.20;;;;;;;;;;5074545;28;20203;-49
2023/04/20 06:45:47;;;;;;;2.45;1.73;;;;;;;;;;5074659;28;20712;-48
2023/04/20 06:48:14;;;;;;;3.63;1.40;;;;;;;;;;5074484;28;20207;-48
2023/04/20 06:50:58;;;;;;;3.55;1.50;;;;;;;;;;5074391;28;20199;-49
2023/04/20 06:53:25;;;;;;;4.45;1.63;;;;;;;;;;5074252;28;20668;-49
2023/04/20 06:55:54;;;;;;;3.85;1.58;;;;;;;;;;5074641;28;20268;-48
2023/04/20 06:58:21;;;;;;;2.60;1.60;;;;;;;;;;5074263;28;20199;-50
2023/04/20 07:00:48;;;;;;;2.58;1.38;;;;;;;;;;5074327;28;20207;-49
2023/04/20 07:03:17;;;;;;;2.10;1.58;;;;;;;;;;5074109;28;20213;-50
2023/04/20 07:05:45;;;;;;;1.52;1.13;;;;;;;;;;5074405;28;20215;-49
2023/04/20 07:08:14;;;;;;;1.60;1.23;;;;;;;;;;5073711;28;20199;-49
2023/04/20 07:10:42;;;;;;;2.08;1.33;;;;;;;;;;5073984;28;20210;-49
2023/04/20 07:13:09;;;;;;;1.67;0.95;;;;;;;;;;5073895;28;20698;-51
2023/04/20 07:15:36;;;;;;;3.05;1.40;;;;;;;;;;5074130;28;20211;-49
2023/04/20 07:18:04;;;;;;;0.93;0.85;;;;;;;;;;5073820;28;20213;-49
2023/04/20 07:20:31;;;;;;;3.97;1.50;;;;;;;;;;5074212;28;20281;-49
2023/04/20 07:22:58;;;;;;;2.38;1.25;;;;;;;;;;5073939;28;20227;-49
2023/04/20 07:25:26;;;;;;;1.70;1.10;;;;;;;;;;5073994;28;20698;-48
2023/04/20 07:27:53;;;;;;;3.65;1.67;;;;;;;;;;5073960;28;20694;-49
2023/04/20 07:30:20;;;;;;;3.70;1.40;;;;;;;;;;5073813;28;20191;-48
2023/04/20 07:32:47;;;;;;;2.40;1.20;;;;;;;;;;5073581;28;20196;-49
2023/04/20 07:35:15;;;;;;;2.10;1.25;;;;;;;;;;5073891;28;20272;-48
2023/04/20 07:37:42;;;;;;;2.83;1.20;;;;;;;;;;5073708;28;20206;-50
2023/04/20 07:40:09;;;;;;;1.20;1.10;;;;;;;;;;5073978;28;20207;-49
2023/04/20 07:42:37;;;;;;;1.17;1.05;;;;;;;;;;5073530;28;20574;-48
2023/04/20 07:45:05;;;;;;;1.55;0.98;;;;;;;;;;5073349;28;20254;-49
2023/04/20 07:47:33;;;;;;;2.30;1.20;;;;;;;;;;5073431;28;20207;-49
2023/04/20 07:50:00;;;;;;;2.90;1.30;;;;;;;;;;5073685;28;20208;-49
2023/04/20 07:52:27;;;;;;;1.67;1.00;;;;;;;;;;5073575;28;20226;-48
2023/04/20 07:54:58;;;;;;;2.13;1.30;;;;;;;;;;5073379;28;20207;-49
2023/04/20 07:57:26;;;;;;;1.50;0.95;;;;;;;;;;5073429;28;20205;-48
2023/04/20 07:59:53;;;;;;;4.18;1.17;;;;;;;;;;5073557;28;20207;-50
2023/04/20 08:02:20;;;;;;;3.20;1.38;;;;;;;;;;5073568;28;20206;-50
2023/04/20 08:04:48;;;;;;;2.10;1.10;;;;;;;;;;5073417;28;20226;-49
2023/04/20 08:07:16;;;;;;;0.85;0.80;;;;;;;;;;5073161;28;20570;-49
2023/04/20 08:09:43;;;;;;;2.25;1.30;;;;;;;;;;5073182;28;20207;-50
2023/04/20 08:12:10;;;;;;;1.77;0.95;;;;;;;;;;5073162;28;20211;-50
2023/04/20 08:14:39;;;;;;;2.00;0.90;;;;;;;;;;5073337;28;20210;-49
2023/04/20 08:17:07;;;;;;;1.55;1.02;;;;;;;;;;5073215;28;20286;-50
2023/04/20 08:19:34;;;;;;;1.85;1.10;;;;;;;;;;5074284;28;20780;-49
2023/04/20 08:22:01;;;;;;;3.97;1.20;;;;;;;;;;5077875;28;20207;-50
2023/04/20 08:24:29;;;;;;;4.60;1.30;;;;;;;;;;5077109;28;20234;-49
2023/04/20 08:26:58;;;;;;;1.63;1.05;;;;;;;;;;5077068;28;20195;-51
2023/04/20 08:29:25;;;;;;;1.33;0.90;;;;;;;;;;5077319;28;20211;-49
2023/04/20 08:31:52;;;;;;;1.58;1.02;;;;;;;;;;5077101;28;20221;-49
2023/04/20 08:34:20;;;;;;;4.20;1.08;;;;;;;;;;5077109;28;20211;-48
2023/04/20 08:36:47;;;;;;;2.03;0.90;;;;;;;;;;5076925;28;20206;-49
2023/04/20 08:39:19;;;;;;;3.83;1.20;;;;;;;;;;5077150;28;20191;-49
2023/04/20 08:41:46;;;;;;;2.40;1.00;;;;;;;;;;5077178;28;20285;-52
2023/04/20 08:44:14;;;;;;;2.97;0.88;;;;;;;;;;5076918;28;20211;-48
2023/04/20 08:46:46;;;;;;;0.95;0.77;;;;;;;;;;5076723;28;20209;-49
2023/04/20 08:49:18;;;;;;;1.73;0.90;;;;;;;;;;5076927;28;20211;-49
2023/04/20 08:51:47;;;;;;;1.52;1.00;;;;;;;;;;5076739;28;20203;-49
2023/04/20 08:54:15;;;;;;;1.65;0.90;;;;;;;;;;5076588;28;20218;-50
2023/04/20 08:56:44;;;;;;;1.48;1.02;;;;;;;;;;5076613;28;20203;-48
2023/04/20 08:59:13;;;;;;;2.05;1.33;;;;;;;;;;5076391;28;20199;-49
2023/04/20 09:01:41;;;;;;;1.55;0.90;;;;;;;;;;5076515;28;20199;-49
2023/04/20 09:04:19;;;;;;;2.85;0.93;;;;;;;;;;5076299;28;20203;-49
2023/04/20 09:06:49;;;;;;;1.80;1.00;;;;;;;;;;5076812;28;20199;-49
2023/04/20 09:09:21;;;;;;;2.67;1.30;;;;;;;;;;5076552;28;20199;-49
2023/04/20 09:12:02;;;;;;;2.20;1.08;;;;;;;;;;5076426;28;20668;-49
2023/04/20 09:14:43;;;;;;;1.63;1.00;;;;;;;;;;5076271;28;20222;-49
2023/04/20 09:17:13;;;;;;;1.55;0.82;;;;;;;;;;5076603;28;20208;-49
2023/04/20 09:19:43;;;;;;;1.80;1.15;;;;;;;;;;5076507;28;20285;-48
2023/04/20 09:22:10;;;;;;;4.70;1.30;;;;;;;;;;5076061;28;20636;-49
2023/04/20 09:24:38;;;;;;;1.88;1.02;;;;;;;;;;5076050;28;20235;-49
2023/04/20 09:27:16;;;;;;;3.33;1.10;;;;;;;;;;5075890;28;20199;-50
2023/04/20 09:29:56;;;;;;;1.45;1.02;;;;;;;;;;5075906;28;20203;-49
2023/04/20 09:32:24;;;;;;;2.00;1.20;;;;;;;;;;5076239;28;20214;-48
2023/04/20 09:34:52;;;;;;;2.08;1.23;;;;;;;;;;5076027;28;20207;-49
2023/04/20 09:37:19;;;;;;;2.40;1.42;;;;;;;;;;5075885;28;20203;-49
2023/04/20 09:39:46;;;;;;;1.08;0.95;;;;;;;;;;5075642;28;20207;-49
2023/04/20 09:42:15;;;;;;;3.95;1.10;;;;;;;;;;5075740;28;20203;-49
2023/04/20 09:44:43;;;;;;;1.67;1.15;;;;;;;;;;5075867;28;20231;-50
2023/04/20 09:47:16;;;;;;;2.45;1.17;;;;;;;;;;5075597;28;20648;-49
2023/04/20 09:49:47;;;;;;;2.90;1.30;;;;;;;;;;5075743;28;20203;-50
2023/04/20 09:52:17;;;;;;;2.72;1.20;;;;;;;;;;5075552;28;20210;-48
2023/04/20 09:54:46;;;;;;;2.13;1.05;;;;;;;;;;5075181;28;20668;-49
2023/04/20 09:57:13;;;;;;;1.80;1.30;;;;;;;;;;5075632;28;20223;-49
2023/04/20 09:59:45;;;;;;;1.67;1.13;;;;;;;;;;5075591;28;20203;-49
2023/04/20 10:02:12;;;;;;;1.60;1.10;;;;;;;;;;5075364;28;20644;-50
2023/04/20 10:05:00;;;;;;;2.08;1.20;;;;;;;;;;5057824;28;20199;-49
2023/04/20 10:07:30;;;;;;;1.67;1.00;;;;;;;;;;5075206;28;20213;-48
2023/04/20 10:10:07;;;;;;;1.65;1.27;;;;;;;;;;5075285;28;20204;-50
2023/04/20 10:12:53;;;;;;;1.83;1.10;;;;;;;;;;5075459;28;20203;-49
2023/04/20 10:15:21;;;;;;;1.73;1.20;;;;;;;;;;5075131;28;20196;-49
2023/04/20 10:17:49;;;;;;;2.75;1.40;;;;;;;;;;5075243;28;20211;-50
2023/04/20 10:20:25;;;;;;;1.95;1.13;;;;;;;;;;5074895;28;20246;-49
2023/04/20 10:23:05;;;;;;;1.33;1.05;;;;;;;;;;5075005;28;20648;-49
2023/04/20 10:25:32;;;;;;;1.55;1.10;;;;;;;;;;5074927;28;20230;-50
2023/04/20 10:28:04;;;;;;;3.95;1.25;;;;;;;;;;5075049;28;20280;-50
2023/04/20 10:30:34;;;;;;;2.65;1.42;;;;;;;;;;5075426;28;20195;-48
2023/04/20 10:33:06;;;;;;;4.57;1.23;;;;;;;;;;5074776;28;20579;-50
2023/04/20 10:35:53;;;;;;;4.00;1.50;;;;;;;;;;5074926;28;20207;-49
2023/04/20 10:38:31;;;;;;;3.88;1.48;;;;;;;;;;5074857;28;20210;-50
2023/04/20 10:41:05;;;;;;;2.35;1.13;;;;;;;;;;5075078;28;20606;-48
2023/04/20 10:43:34;;;;;;;2.42;1.10;;;;;;;;;;5073862;28;20198;-49
2023/04/20 10:46:01;;;;;;;1.48;1.20;;;;;;;;;;5074600;28;20230;-49
2023/04/20 10:48:28;;;;;;;1.73;1.23;;;;;;;;;;5074365;28;20211;-49
2023/04/20 10:50:55;;;;;;;2.25;1.38;;;;;;;;;;5074323;28;20218;-48
2023/04/20 10:53:23;;;;;;;1.85;1.30;;;;;;;;;;5074174;28;20544;-49
2023/04/20 10:55:59;;;;;;;1.25;1.15;;;;;;;;;;5074343;28;20659;-49
2023/04/20 10:58:27;;;;;;;1.88;1.23;;;;;;;;;;5074252;28;20683;-49
2023/04/20 11:01:01;;;;;;;3.50;1.25;;;;;;;;;;5074154;28;20724;-48
2023/04/20 11:03:30;;;;;;;2.42;1.45;;;;;;;;;;5074167;28;20191;-48
2023/04/20 11:06:00;;;;;;;1.23;1.00;;;;;;;;;;5074205;28;20230;-48
2023/04/20 11:08:42;;;;;;;2.03;1.25;;;;;;;;;;5074429;28;20608;-49
2023/04/20 11:11:18;;;;;;;2.67;1.17;;;;;;;;;;5073875;28;20381;-49
2023/04/20 11:13:46;;;;;;;2.53;1.40;;;;;;;;;;5074554;28;20222;-49
2023/04/20 11:16:15;;;;;;;4.00;1.40;;;;;;;;;;5074291;28;20226;-49
2023/04/20 11:18:51;;;;;;;3.40;1.30;;;;;;;;;;5073879;28;20737;-48
2023/04/20 11:21:19;;;;;;;1.70;0.82;;;;;;;;;;5073916;28;20647;-49
2023/04/20 11:23:47;;;;;;;1.80;1.40;;;;;;;;;;5048860;28;20679;-49
2023/04/20 11:26:14;;;;;;;2.58;1.20;;;;;;;;;;5061852;28;20250;-51
2023/04/20 11:28:53;;;;;;;2.28;1.50;;;;;;;;;;5071346;28;20513;-54
2023/04/20 11:31:22;;;;;;;2.50;1.27;;;;;;;;;;5071814;28;20207;-49
2023/04/20 11:33:50;;;;;;;3.65;1.20;;;;;;;;;;5066027;28;20219;-54
2023/04/20 11:36:19;;;;;;;3.10;1.23;;;;;;;;;;5072896;28;20249;-49
2023/04/20 11:38:46;;;;;;;1.60;1.13;;;;;;;;;;5074447;28;20226;-49
2023/04/20 11:41:13;;;;;;;1.88;1.15;;;;;;;;;;5093355;28;20230;-50
2023/04/20 11:43:42;;;;;;;2.13;1.30;;;;;;;;;;5092954;28;20222;-49
2023/04/20 11:46:16;;;;;;;1.92;1.10;;;;;;;;;;5085852;28;20233;-51
2023/04/20 11:48:44;;;;;;;5.47;1.35;;;;;;;;;;5079906;28;20210;-55
2023/04/20 11:51:12;;;;;;;1.73;1.02;;;;;;;;;;5080429;28;20630;-54
2023/04/20 11:53:40;;;;;;;2.78;1.30;;;;;;;;;;5081569;28;20219;-53
2023/04/20 11:56:07;;;;;;;2.30;1.40;;;;;;;;;;5080609;28;20268;-49
2023/04/20 11:58:35;;;;;;;2.85;1.70;;;;;;;;;;5083598;28;20226;-51
2023/04/20 12:01:04;;;;;;;1.45;1.20;;;;;;;;;;5082066;28;20268;-52
2023/04/20 12:03:31;;;;;;;2.17;1.25;;;;;;;;;;5081074;28;20234;-48
2023/04/20 12:05:59;;;;;;;1.98;1.20;;;;;;;;;;5082061;28;20272;-49
2023/04/20 12:08:26;;;;;;;3.15;1.63;;;;;;;;;;5077405;28;20223;-48
2023/04/20 12:10:54;;;;;;;2.00;1.10;;;;;;;;;;5081148;28;20707;-53
2023/04/20 12:13:24;;;;;;;2.30;1.20;;;;;;;;;;5080070;28;20251;-53
2023/04/20 12:15:51;;;;;;;3.45;1.23;;;;;;;;;;5081717;28;20238;-50
2023/04/20 12:18:19;;;;;;;1.98;1.10;;;;;;;;;;5082198;28;20234;-50
2023/04/20 12:20:46;;;;;;;1.42;1.10;;;;;;;;;;5076505;28;20235;-49
2023/04/20 12:23:13;;;;;;;2.28;1.30;;;;;;;;;;5081610;28;20215;-49
2023/04/20 12:25:41;;;;;;;2.00;1.40;;;;;;;;;;5080355;28;20276;-50
2023/04/20 12:28:09;;;;;;;3.78;1.60;;;;;;;;;;5068222;28;20227;-53
2023/04/20 12:30:36;;;;;;;1.75;1.30;;;;;;;;;;5068609;28;20223;-53
2023/04/20 12:33:03;;;;;;;2.03;1.25;;;;;;;;;;5071685;28;20585;-50
2023/04/20 12:35:30;;;;;;;1.80;1.25;;;;;;;;;;5075906;28;20222;-50
2023/04/20 12:37:57;;;;;;;1.38;0.95;;;;;;;;;;5092215;28;20229;-49
2023/04/20 12:40:24;;;;;;;2.47;1.40;;;;;;;;;;5073268;28;20230;-50
2023/04/20 12:42:52;;;;;;;2.30;1.23;;;;;;;;;;5081991;28;20725;-55
2023/04/20 12:45:19;;;;;;;1.55;1.42;;;;;;;;;;5074460;28;20228;-49
2023/04/20 12:47:46;;;;;;;1.77;1.38;;;;;;;;;;5073351;28;20227;-49
2023/04/20 12:50:13;;;;;;;1.83;1.17;;;;;;;;;;5091744;28;20613;-50
2023/04/20 12:52:40;;;;;;;1.80;1.15;;;;;;;;;;5092142;28;20223;-50
2023/04/20 12:55:08;;;;;;;1.80;1.13;;;;;;;;;;5091681;28;20223;-53
2023/04/20 12:57:35;;;;;;;3.08;1.27;;;;;;;;;;5092526;28;20226;-50
2023/04/20 13:00:05;;;;;;;1.92;1.20;;;;;;;;;;5077025;28;20241;-49
2023/04/20 13:02:32;;;;;;;1.55;1.10;;;;;;;;;;5072089;28;20238;-47
2023/04/20 13:04:59;;;;;;;1.55;1.27;;;;;;;;;;5072256;28;20230;-50
2023/04/20 13:07:27;;;;;;;1.50;1.08;;;;;;;;;;5075539;28;20235;-49
2023/04/20 13:09:53;;;;;;;2.45;1.45;;;;;;;;;;5075173;28;20223;-51
2023/04/20 13:12:21;;;;;;;3.33;1.38;;;;;;;;;;5075397;28;20227;-48
2023/04/20 13:14:50;;;;;;;1.40;1.08;;;;;;;;;;5086499;28;20740;-55
2023/04/20 13:17:17;;;;;;;2.20;1.45;;;;;;;;;;5095682;28;20221;-49
2023/04/20 13:19:48;;;;;;;5.57;1.42;;;;;;;;;;5069211;28;20278;-52
2023/04/20 13:22:16;;;;;;;2.42;1.50;;;;;;;;;;5075661;28;20223;-48
2023/04/20 13:24:44;;;;;;;2.15;1.15;;;;;;;;;;5078736;28;20222;-52
2023/04/20 13:27:13;;;;;;;2.28;1.27;;;;;;;;;;5095474;28;20284;-51
2023/04/20 13:29:40;;;;;;;2.28;1.48;;;;;;;;;;5085396;28;20234;-53
2023/04/20 13:32:09;;;;;;;4.00;1.70;;;;;;;;;;5074668;28;20238;-53
2023/04/20 13:34:36;;;;;;;3.35;1.58;;;;;;;;;;5075128;28;20277;-50
2023/04/20 13:37:03;;;;;;;5.20;1.70;;;;;;;;;;5074849;28;20227;-49
2023/04/20 13:39:30;;;;;;;2.85;1.45;;;;;;;;;;5074933;28;20215;-49
2023/04/20 13:41:58;;;;;;;2.75;1.50;;;;;;;;;;5074887;28;20223;-50
2023/04/20 13:44:25;;;;;;;2.28;1.70;;;;;;;;;;5073325;28;20223;-50
2023/04/20 13:46:52;;;;;;;1.70;1.42;;;;;;;;;;5061902;28;20236;-53
2023/04/20 13:49:21;;;;;;;3.55;1.65;;;;;;;;;;5069545;28;20265;-55
2023/04/20 13:51:49;;;;;;;4.18;1.67;;;;;;;;;;5074706;28;20227;-51
2023/04/20 13:54:16;;;;;;;2.65;1.50;;;;;;;;;;5074912;28;20596;-50
2023/04/20 13:56:44;;;;;;;2.75;1.48;;;;;;;;;;5073128;28;20220;-49
2023/04/20 13:59:11;;;;;;;2.10;1.48;;;;;;;;;;5073448;28;20207;-53
2023/04/20 14:01:38;;;;;;;2.97;1.73;;;;;;;;;;5060599;28;20235;-52
2023/04/20 14:04:07;;;;;;;2.45;1.42;;;;;;;;;;5054631;28;20220;-52
2023/04/20 14:06:35;;;;;;;2.45;1.25;;;;;;;;;;5053348;28;20239;-51
2023/04/20 14:09:02;;;;;;;3.58;1.75;;;;;;;;;;5054568;28;20243;-48
2023/04/20 14:11:29;;;;;;;2.80;1.58;;;;;;;;;;5067544;28;20702;-48
2023/04/20 14:13:56;;;;;;;3.45;1.77;;;;;;;;;;5073136;28;20250;-50
2023/04/20 14:16:24;;;;;;;2.33;1.60;;;;;;;;;;5071232;28;20284;-55
2023/04/20 14:18:51;;;;;;;1.85;1.40;;;;;;;;;;5081842;28;20602;-50
2023/04/20 14:21:19;;;;;;;2.83;1.63;;;;;;;;;;5080759;28;20231;-53
2023/04/20 14:23:48;;;;;;;2.65;1.50;;;;;;;;;;5075192;28;20223;-49
2023/04/20 14:26:16;;;;;;;2.22;1.30;;;;;;;;;;5076285;28;20592;-49
2023/04/20 14:28:44;;;;;;;2.63;1.38;;;;;;;;;;5080512;28;20626;-50
2023/04/20 14:31:12;;;;;;;2.83;1.55;;;;;;;;;;5082317;28;20745;-52
2023/04/20 14:33:40;;;;;;;3.20;1.60;;;;;;;;;;5081751;28;20309;-53
2023/04/20 14:36:07;;;;;;;2.40;1.50;;;;;;;;;;5089935;28;20226;-51
2023/04/20 14:38:34;;;;;;;2.25;1.33;;;;;;;;;;5083220;28;20721;-54
2023/04/20 14:41:01;;;;;;;1.65;1.15;;;;;;;;;;5080907;28;20222;-51
2023/04/20 14:43:31;;;;;;;1.88;1.38;;;;;;;;;;5080143;28;20249;-51
2023/04/20 14:45:59;;;;;;;2.28;1.60;;;;;;;;;;5075674;28;20210;-49
2023/04/20 14:48:26;;;;;;;2.08;1.50;;;;;;;;;;5075176;28;20227;-48
2023/04/20 14:50:53;;;;;;;2.95;1.30;;;;;;;;;;5079260;28;20250;-49
2023/04/20 14:53:20;;;;;;;2.70;1.40;;;;;;;;;;5084433;28;20218;-48